createdAt,value
2022-11-20T00:03:27.376Z,100789.25
2022-11-20T00:11:09.362Z,100795.44
2022-11-20T00:18:49.800Z,100793.38
2022-11-20T00:26:27.650Z,100789.50
2022-11-20T00:34:01.617Z,100782.53
2022-11-20T00:41:37.009Z,100789.75
2022-11-20T00:49:11.342Z,100791.38
2022-11-20T00:56:47.227Z,100791.56
2022-11-20T01:04:21.150Z,100793.38
2022-11-20T01:11:57.252Z,100792.22
2022-11-20T01:19:31.125Z,100791.13
2022-11-20T01:27:06.365Z,100780.53
2022-11-20T01:34:40.294Z,100785.78
2022-11-20T01:42:33.210Z,100777.13
2022-11-20T01:50:13.915Z,100772.56
2022-11-20T01:57:51.899Z,100768.91
2022-11-20T02:05:31.058Z,100770.19
2022-11-20T02:13:24.575Z,100765.78
2022-11-20T02:21:05.411Z,100758.59
2022-11-20T02:28:41.090Z,100752.38
2022-11-20T02:36:18.555Z,100752.31
2022-11-20T02:43:53.828Z,100745.16
2022-11-20T02:51:27.671Z,100745.97
2022-11-20T02:59:03.071Z,100742.22
2022-11-20T03:06:36.987Z,100737.50
2022-11-20T03:14:12.202Z,100739.72
2022-11-20T03:21:46.321Z,100731.81
2022-11-20T03:29:21.851Z,100727.41
2022-11-20T03:36:55.902Z,100710.66
2022-11-20T03:44:31.447Z,100717.66
2022-11-20T03:52:05.553Z,100715.66
2022-11-20T03:59:40.713Z,100716.31
2022-11-20T04:07:14.442Z,100717.47
2022-11-20T04:14:49.731Z,100717.72
2022-11-20T04:22:23.664Z,100712.72
2022-11-20T04:29:59.023Z,100712.91
2022-11-20T04:37:32.935Z,100714.44
2022-11-20T04:45:09.457Z,100720.03
2022-11-20T04:52:43.479Z,100712.31
2022-11-20T05:00:19.683Z,100700.09
2022-11-20T05:07:53.782Z,100695.81
2022-11-20T05:15:29.131Z,100680.06
2022-11-20T05:23:03.113Z,100674.09
2022-11-20T05:30:38.372Z,100686.56
2022-11-20T05:38:12.455Z,100680.31
2022-11-20T05:45:55.717Z,100675.88
2022-11-20T05:53:29.929Z,100662.09
2022-11-20T06:01:10.198Z,100668.94
2022-11-20T06:08:44.315Z,100669.13
2022-11-20T06:16:21.377Z,100664.63
2022-11-20T06:23:55.962Z,100655.91
2022-11-20T06:31:33.788Z,100664.78
2022-11-20T06:39:07.636Z,100669.06
2022-11-20T06:46:42.956Z,100658.63
2022-11-20T06:54:16.797Z,100653.25
2022-11-20T07:01:52.091Z,100653.81
2022-11-20T07:09:26.338Z,100659.72
2022-11-20T07:17:01.796Z,100657.19
2022-11-20T07:24:39.765Z,100649.88
2022-11-20T07:32:17.210Z,100652.00
2022-11-20T07:39:51.076Z,100648.22
2022-11-20T07:47:26.264Z,100651.94
2022-11-20T07:55:00.077Z,100654.72
2022-11-20T08:02:35.518Z,100650.53
2022-11-20T08:10:10.906Z,100645.59
2022-11-20T08:18:08.294Z,100642.34
2022-11-20T08:25:41.315Z,100642.97
2022-11-20T08:33:18.481Z,100637.41
2022-11-20T08:41:06.262Z,100631.16
2022-11-20T08:48:41.573Z,100624.75
2022-11-20T08:56:15.422Z,100628.97
2022-11-20T09:03:51.088Z,100635.75
2022-11-20T09:11:24.979Z,100625.91
2022-11-20T09:19:34.198Z,100633.78
2022-11-20T09:26:54.803Z,100639.03
2022-11-20T09:34:30.297Z,100640.16
2022-11-20T09:42:30.324Z,100629.81
2022-11-20T09:50:19.810Z,100619.47
2022-11-20T09:57:54.272Z,100620.47
2022-11-20T10:05:34.065Z,100616.44
2022-11-20T10:13:22.099Z,100607.91
2022-11-20T10:21:07.797Z,100611.00
2022-11-20T10:28:57.127Z,100606.41
2022-11-20T10:36:41.257Z,100591.28
2022-11-20T10:44:38.993Z,100581.28
2022-11-20T10:52:22.274Z,100572.59
2022-11-20T11:00:08.220Z,100569.72
2022-11-20T11:07:44.204Z,100569.28
2022-11-20T11:15:29.288Z,100566.88
2022-11-20T11:23:05.449Z,100557.59
2022-11-20T11:30:50.249Z,100561.16
2022-11-20T11:38:32.461Z,100551.94
2022-11-20T11:46:11.670Z,100546.97
2022-11-20T11:53:46.984Z,100542.22
2022-11-20T12:01:30.490Z,100529.47
2022-11-20T12:09:10.179Z,100541.28
2022-11-20T12:16:43.998Z,100527.97
2022-11-20T12:24:44.537Z,100527.00
2022-11-20T12:32:39.285Z,100515.53
2022-11-20T12:40:27.990Z,100510.13
2022-11-20T12:48:29.920Z,100505.56
2022-11-20T12:56:17.036Z,100513.34
2022-11-20T13:03:57.343Z,100505.09
2022-11-20T13:11:39.704Z,100498.19
2022-11-20T13:19:15.095Z,100490.88
2022-11-20T13:26:50.275Z,100478.22
2022-11-20T13:34:26.963Z,100473.50
2022-11-20T13:42:04.337Z,100477.78
2022-11-20T13:49:45.151Z,100461.94
2022-11-20T13:57:43.431Z,100478.75
2022-11-20T14:05:23.123Z,100475.50
2022-11-20T14:12:58.574Z,100476.41
2022-11-20T14:20:33.254Z,100466.91
2022-11-20T14:28:13.716Z,100467.41
2022-11-20T14:35:49.273Z,100475.50
2022-11-20T14:43:27.388Z,100482.44
2022-11-20T14:51:01.301Z,100468.38
2022-11-20T14:58:36.537Z,100475.28
2022-11-20T15:06:14.006Z,100477.91
2022-11-20T15:13:49.141Z,100477.91
2022-11-20T15:21:23.896Z,100469.59
2022-11-20T15:28:59.692Z,100466.84
2022-11-20T15:36:33.520Z,100460.69
2022-11-20T15:44:08.827Z,100460.97
2022-11-20T15:51:45.224Z,100452.25
2022-11-20T15:59:20.457Z,100445.06
2022-11-20T16:06:54.241Z,100440.31
2022-11-20T16:14:47.017Z,100438.66
2022-11-20T16:22:21.193Z,100433.19
2022-11-20T16:29:56.372Z,100438.44
2022-11-20T16:37:31.818Z,100441.63
2022-11-20T16:45:07.780Z,100434.56
2022-11-20T16:52:42.563Z,100441.13
2022-11-20T17:00:18.528Z,100435.72
2022-11-20T17:07:52.508Z,100437.31
2022-11-20T17:15:27.788Z,100433.34
2022-11-20T17:23:01.612Z,100433.13
2022-11-20T17:30:37.028Z,100432.69
2022-11-20T17:38:10.863Z,100432.41
2022-11-20T17:45:46.871Z,100432.25
2022-11-20T17:53:21.331Z,100431.41
2022-11-20T18:00:56.842Z,100428.50
2022-11-20T18:08:30.614Z,100419.50
2022-11-20T18:16:09.248Z,100407.78
2022-11-20T18:23:43.150Z,100401.31
2022-11-20T18:31:18.543Z,100400.06
2022-11-20T18:38:58.185Z,100403.31
2022-11-20T18:46:33.746Z,100395.03
2022-11-20T18:54:08.293Z,100387.00
2022-11-20T19:01:43.537Z,100381.47
2022-11-20T19:09:17.677Z,100401.47
2022-11-20T19:16:52.762Z,100397.69
2022-11-20T19:24:28.991Z,100396.34
2022-11-20T19:32:04.815Z,100406.63
2022-11-20T19:39:38.633Z,100391.72
2022-11-20T19:47:14.843Z,100387.19
2022-11-20T19:54:48.765Z,100395.75
2022-11-20T20:02:23.960Z,100381.63
2022-11-20T20:09:58.133Z,100384.25
2022-11-20T20:17:33.601Z,100380.44
2022-11-20T20:25:08.010Z,100373.22
2022-11-20T20:32:43.284Z,100343.41
2022-11-20T20:40:18.863Z,100345.72
2022-11-20T20:47:55.790Z,100339.22
2022-11-20T20:55:29.795Z,100339.75
2022-11-20T21:03:05.143Z,100347.06
2022-11-20T21:10:38.965Z,100339.78
2022-11-20T21:18:14.269Z,100325.44
2022-11-20T21:25:48.231Z,100315.47
2022-11-20T21:33:23.320Z,100308.13
2022-11-20T21:40:58.433Z,100309.50
2022-11-20T21:48:34.930Z,100302.16
2022-11-20T21:56:10.431Z,100289.63
2022-11-20T22:03:50.596Z,100275.31
2022-11-20T22:11:24.551Z,100274.16
2022-11-20T22:18:59.584Z,100263.59
2022-11-20T22:26:40.263Z,100261.81
2022-11-20T22:34:16.324Z,100247.56
2022-11-20T22:41:50.129Z,100241.19
2022-11-20T22:49:25.313Z,100229.00
2022-11-20T22:56:59.457Z,100218.66
2022-11-20T23:04:35.041Z,100213.50
2022-11-20T23:12:09.357Z,100213.03
2022-11-20T23:19:44.697Z,100210.66
2022-11-20T23:27:19.829Z,100190.91
2022-11-20T23:34:55.331Z,100186.13
2022-11-20T23:42:29.581Z,100182.97
2022-11-20T23:50:05.546Z,100177.81
2022-11-20T23:57:39.433Z,100161.72
